Roswell, New Mexico
Current Conditions -  °F | °C
As of 12:51 AM on Tuesday 27 Jan 2015 (Local Time) from KROW Reporting Station
Clear Clear  
Wind Chill:   Ceiling: Unl
Heat Index:   Visibility: 10mi
Dew Point:   Wind: 3mph
Humidity: 76%   Direction: 360°N
Pressure: 30.27"   Gusts: NA
Location:  33.39°N, 104.52°W
Report Text: KROW 270751Z AUTO 36003KT 10SM CLR 04/00 A3027 RMK AO2 SLP229 T00390000
Loading
Personal Weather Stations






























Interactive Weather Map New forecast layout! Learn more

10-Day Weather Forecast

Advertisements
Track Severe Weather on mobile